createdAt,value
2023-01-13T00:01:10.902Z,99795.78
2023-01-13T00:03:37.802Z,99785.88
2023-01-13T00:06:04.989Z,99785.50
2023-01-13T00:08:31.865Z,99786.31
2023-01-13T00:10:58.318Z,99777.22
2023-01-13T00:13:27.770Z,99781.19
2023-01-13T00:15:58.233Z,99783.41
2023-01-13T00:18:25.165Z,99770.81
2023-01-13T00:21:18.332Z,99778.16
2023-01-13T00:23:45.683Z,99772.44
2023-01-13T00:26:21.731Z,99768.91
2023-01-13T00:28:48.742Z,99759.16
2023-01-13T00:31:20.263Z,99751.16
2023-01-13T00:33:48.988Z,99755.50
2023-01-13T00:36:16.735Z,99758.34
2023-01-13T00:38:43.804Z,99754.19
2023-01-13T00:41:12.973Z,99753.88
2023-01-13T00:43:39.772Z,99751.97
2023-01-13T00:46:08.299Z,99740.47
2023-01-13T00:48:35.916Z,99738.72
2023-01-13T00:51:08.581Z,99732.97
2023-01-13T00:53:37.250Z,99722.41
2023-01-13T00:56:07.121Z,99739.50
2023-01-13T00:58:35.823Z,99733.72
2023-01-13T01:01:08.199Z,99731.19
2023-01-13T01:03:35.483Z,99732.91
2023-01-13T01:06:07.908Z,99729.09
2023-01-13T01:08:37.498Z,99730.69
2023-01-13T01:11:05.991Z,99732.41
2023-01-13T01:13:32.969Z,99731.78
2023-01-13T01:15:59.752Z,99742.97
2023-01-13T01:18:26.336Z,99749.06
2023-01-13T01:20:52.752Z,99746.19
2023-01-13T01:23:21.884Z,99747.81
2023-01-13T01:25:48.241Z,99753.22
2023-01-13T01:28:14.609Z,99753.09
2023-01-13T01:30:41.037Z,99749.28
2023-01-13T01:33:07.452Z,99750.88
2023-01-13T01:35:33.907Z,99746.06
2023-01-13T01:38:00.501Z,99740.97
2023-01-13T01:40:27.570Z,99742.75
2023-01-13T01:43:12.300Z,99739.56
2023-01-13T01:45:38.730Z,99736.84
2023-01-13T01:48:07.681Z,99733.16
2023-01-13T01:50:34.813Z,99729.66
2023-01-13T01:53:14.901Z,99737.94
2023-01-13T01:55:41.992Z,99729.66
2023-01-13T01:58:49.849Z,99735.22
2023-01-13T02:01:16.896Z,99737.16
2023-01-13T02:03:51.163Z,99737.81
2023-01-13T02:06:21.040Z,99735.38
2023-01-13T02:08:47.875Z,99739.56
2023-01-13T02:11:51.527Z,99734.31
2023-01-13T02:14:20.917Z,99735.09
2023-01-13T02:16:55.645Z,99729.03
2023-01-13T02:19:28.117Z,99726.16
2023-01-13T02:22:10.553Z,99730.28
2023-01-13T02:25:10.974Z,99736.34
2023-01-13T02:28:02.787Z,99738.75
2023-01-13T02:31:02.750Z,99738.44
2023-01-13T02:33:34.325Z,99753.63
2023-01-13T02:36:13.304Z,99745.00
2023-01-13T02:38:49.906Z,99757.44
2023-01-13T02:41:45.963Z,99760.16
2023-01-13T02:44:16.608Z,99758.19
2023-01-13T02:46:53.742Z,99754.44
2023-01-13T02:49:35.880Z,99750.47
2023-01-13T02:52:11.030Z,99753.34
2023-01-13T02:54:43.740Z,99747.09
2023-01-13T02:57:11.909Z,99752.53
2023-01-13T02:59:40.766Z,99753.22
2023-01-13T03:02:12.683Z,99743.00
2023-01-13T03:04:49.917Z,99748.69
2023-01-13T03:07:41.292Z,99748.91
2023-01-13T03:10:25.507Z,99742.38
2023-01-13T03:13:11.483Z,99747.31
2023-01-13T03:15:50.677Z,99745.19
2023-01-13T03:18:26.835Z,99746.94
2023-01-13T03:21:06.126Z,99744.22
2023-01-13T03:23:47.285Z,99747.63
2023-01-13T03:26:40.828Z,99744.38
2023-01-13T03:29:11.855Z,99749.97
2023-01-13T03:31:46.503Z,99745.41
2023-01-13T03:34:23.566Z,99743.78
2023-01-13T03:36:55.493Z,99737.25
2023-01-13T03:39:29.200Z,99740.63
2023-01-13T03:42:02.061Z,99740.13
2023-01-13T03:44:35.981Z,99732.63
2023-01-13T03:47:27.515Z,99732.13
2023-01-13T03:50:09.059Z,99729.41
2023-01-13T03:52:40.286Z,99724.47
2023-01-13T03:55:14.227Z,99725.75
2023-01-13T03:58:06.722Z,99722.72
2023-01-13T04:00:41.523Z,99734.09
2023-01-13T04:03:12.326Z,99726.25
2023-01-13T04:05:43.828Z,99716.97
2023-01-13T04:08:23.866Z,99725.63
2023-01-13T04:11:04.607Z,99727.38
2023-01-13T04:13:36.774Z,99722.25
2023-01-13T04:16:06.326Z,99720.81
2023-01-13T04:18:33.076Z,99719.41
2023-01-13T04:21:01.363Z,99724.81
2023-01-13T04:23:29.264Z,99720.03
2023-01-13T04:25:56.576Z,99721.78
2023-01-13T04:28:23.287Z,99710.75
2023-01-13T04:30:49.997Z,99707.53
2023-01-13T04:33:18.414Z,99709.63
2023-01-13T04:35:46.221Z,99700.38
2023-01-13T04:38:15.495Z,99698.75
2023-01-13T04:40:42.612Z,99708.34
2023-01-13T04:43:09.458Z,99698.59
2023-01-13T04:45:35.946Z,99691.09
2023-01-13T04:48:02.600Z,99694.28
2023-01-13T04:50:29.340Z,99695.41
2023-01-13T04:52:56.354Z,99700.84
2023-01-13T04:55:24.576Z,99692.53
2023-01-13T04:57:50.997Z,99691.72
2023-01-13T05:00:20.560Z,99689.00
2023-01-13T05:02:50.115Z,99694.75
2023-01-13T05:05:16.877Z,99688.53
2023-01-13T05:07:43.437Z,99686.59
2023-01-13T05:10:10.689Z,99682.28
2023-01-13T05:12:55.798Z,99676.69
2023-01-13T05:15:40.821Z,99677.47
2023-01-13T05:18:07.477Z,99668.03
2023-01-13T05:20:34.033Z,99671.91
2023-01-13T05:23:19.146Z,99675.56
2023-01-13T05:25:47.557Z,99690.25
2023-01-13T05:28:14.212Z,99677.47
2023-01-13T05:30:43.513Z,99686.13
2023-01-13T05:33:11.526Z,99680.06
2023-01-13T05:35:39.861Z,99685.16
2023-01-13T05:38:06.679Z,99682.44
2023-01-13T05:40:52.157Z,99687.84
2023-01-13T05:43:24.858Z,99688.19
2023-01-13T05:46:00.537Z,99684.69
2023-01-13T05:48:41.864Z,99685.81
2023-01-13T05:51:12.116Z,99695.06
2023-01-13T05:53:40.850Z,99683.41
2023-01-13T05:56:08.580Z,99688.34
2023-01-13T05:58:35.330Z,99689.94
2023-01-13T06:01:09.499Z,99687.53
2023-01-13T06:03:36.649Z,99686.75
2023-01-13T06:06:04.159Z,99678.69
2023-01-13T06:08:31.784Z,99678.38
2023-01-13T06:10:58.538Z,99681.91
2023-01-13T06:13:27.934Z,99681.09
2023-01-13T06:15:58.520Z,99686.84
2023-01-13T06:18:25.800Z,99675.97
2023-01-13T06:20:52.312Z,99688.31
2023-01-13T06:23:19.119Z,99682.38
2023-01-13T06:26:08.260Z,99697.56
2023-01-13T06:28:34.952Z,99728.69
2023-01-13T06:31:06.130Z,99762.56
2023-01-13T06:33:48.420Z,99767.13
2023-01-13T06:36:25.118Z,99755.97
2023-01-13T06:38:56.451Z,99747.78
2023-01-13T06:41:43.632Z,99752.50
2023-01-13T06:44:10.160Z,99740.34
2023-01-13T06:46:36.839Z,99751.00
2023-01-13T06:49:03.336Z,99759.44
2023-01-13T06:51:29.957Z,99757.59
2023-01-13T06:53:56.395Z,99758.44
2023-01-13T06:56:22.789Z,99766.91
2023-01-13T06:58:49.261Z,99778.44
2023-01-13T07:01:15.766Z,99774.00
2023-01-13T07:03:42.304Z,99780.84
2023-01-13T07:06:08.887Z,99775.91
2023-01-13T07:08:35.464Z,99780.28
2023-01-13T07:11:03.176Z,99780.38
2023-01-13T07:13:48.563Z,99779.22
2023-01-13T07:16:15.144Z,99783.53
2023-01-13T07:18:41.582Z,99799.09
2023-01-13T07:21:10.553Z,99823.00
2023-01-13T07:23:39.669Z,99817.28
2023-01-13T07:26:06.924Z,99810.56
2023-01-13T07:28:34.018Z,99819.91
2023-01-13T07:31:00.985Z,99826.53
2023-01-13T07:33:27.630Z,99822.84
2023-01-13T07:35:58.943Z,99821.72
2023-01-13T07:38:25.933Z,99829.06
2023-01-13T07:40:53.090Z,99826.56
2023-01-13T07:43:34.803Z,99832.78
2023-01-13T07:46:04.884Z,99840.19
2023-01-13T07:48:33.518Z,99839.09
2023-01-13T07:51:06.150Z,99834.06
2023-01-13T07:53:33.919Z,99815.44
2023-01-13T07:56:01.894Z,99805.41
2023-01-13T07:58:29.063Z,99803.59
2023-01-13T08:00:56.583Z,99796.94
2023-01-13T08:03:23.999Z,99785.47
2023-01-13T08:05:50.925Z,99788.41
2023-01-13T08:08:17.954Z,99794.84
2023-01-13T08:10:45.241Z,99786.59
2023-01-13T08:13:20.801Z,99792.53
2023-01-13T08:15:50.117Z,99777.09
2023-01-13T08:18:20.573Z,99744.00
2023-01-13T08:20:48.665Z,99752.13
2023-01-13T08:23:16.007Z,99759.94
2023-01-13T08:25:45.250Z,99781.28
2023-01-13T08:28:12.926Z,99811.16
2023-01-13T08:30:39.592Z,99834.22
2023-01-13T08:33:08.400Z,99837.06
2023-01-13T08:35:39.796Z,99834.84
2023-01-13T08:38:08.060Z,99850.09
2023-01-13T08:40:34.806Z,99856.28
2023-01-13T08:43:02.540Z,99860.63
2023-01-13T08:45:29.119Z,99864.63
2023-01-13T08:47:55.771Z,99859.31
2023-01-13T08:50:22.432Z,99834.75
2023-01-13T08:52:48.963Z,99811.09
2023-01-13T08:55:15.913Z,99799.66
2023-01-13T08:57:42.473Z,99797.94
2023-01-13T09:00:09.915Z,99828.72
2023-01-13T09:02:36.550Z,99858.19
2023-01-13T09:05:04.592Z,99858.31
2023-01-13T09:07:31.494Z,99865.13
2023-01-13T09:09:58.443Z,99865.13
2023-01-13T09:12:43.730Z,99857.25
2023-01-13T09:15:11.262Z,99864.56
2023-01-13T09:17:37.701Z,99860.94
2023-01-13T09:20:05.973Z,99837.44
2023-01-13T09:22:35.504Z,99817.28
2023-01-13T09:25:01.979Z,99795.72
2023-01-13T09:27:28.432Z,99817.78
2023-01-13T09:29:54.925Z,99821.47
2023-01-13T09:32:21.636Z,99814.66
2023-01-13T09:35:00.552Z,99828.22
2023-01-13T09:37:34.101Z,99842.25
2023-01-13T09:40:01.418Z,99858.19
2023-01-13T09:42:57.965Z,99832.44
2023-01-13T09:45:50.820Z,99848.38
2023-01-13T09:48:35.355Z,99837.06
2023-01-13T09:51:21.057Z,99830.34
2023-01-13T09:53:55.708Z,99835.88
2023-01-13T09:56:23.463Z,99822.84
2023-01-13T09:58:50.344Z,99814.22
2023-01-13T10:01:23.766Z,99816.69
2023-01-13T10:03:50.335Z,99819.38
2023-01-13T10:06:28.767Z,99823.72
2023-01-13T10:08:56.006Z,99834.13
2023-01-13T10:11:43.766Z,99846.00
2023-01-13T10:14:21.208Z,99839.88
2023-01-13T10:17:11.900Z,99847.81
2023-01-13T10:19:46.321Z,99845.41
2023-01-13T10:22:23.448Z,99849.34
2023-01-13T10:25:10.900Z,99850.56
2023-01-13T10:27:38.717Z,99849.00
2023-01-13T10:30:17.498Z,99844.56
2023-01-13T10:32:50.235Z,99858.09
2023-01-13T10:35:16.767Z,99845.31
2023-01-13T10:37:56.889Z,99855.69
2023-01-13T10:40:23.318Z,99858.03
2023-01-13T10:43:06.408Z,99865.53
2023-01-13T10:45:33.046Z,99867.34
2023-01-13T10:48:12.702Z,99861.91
2023-01-13T10:50:40.577Z,99860.63
2023-01-13T10:53:18.859Z,99858.69
2023-01-13T10:55:59.798Z,99863.03
2023-01-13T10:58:29.516Z,99859.84
2023-01-13T11:01:01.980Z,99853.47
2023-01-13T11:03:37.691Z,99864.78
2023-01-13T11:06:04.488Z,99867.72
2023-01-13T11:08:42.110Z,99874.28
2023-01-13T11:11:25.329Z,99870.50
2023-01-13T11:14:14.838Z,99875.78
2023-01-13T11:16:53.001Z,99871.16
2023-01-13T11:19:22.809Z,99873.06
2023-01-13T11:22:08.787Z,99868.25
2023-01-13T11:24:40.512Z,99882.38
2023-01-13T11:27:19.760Z,99883.34
2023-01-13T11:30:22.859Z,99884.34
2023-01-13T11:33:24.373Z,99878.31
2023-01-13T11:36:02.803Z,99883.22
2023-01-13T11:38:41.204Z,99882.31
2023-01-13T11:41:39.655Z,99883.94
2023-01-13T11:44:32.600Z,99893.25
2023-01-13T11:46:59.064Z,99887.69
2023-01-13T11:49:28.272Z,99892.44
2023-01-13T11:52:04.200Z,99891.59
2023-01-13T11:54:54.863Z,99894.88
2023-01-13T11:57:53.787Z,99908.06
2023-01-13T12:01:02.713Z,99896.34
2023-01-13T12:03:32.303Z,99888.78
2023-01-13T12:06:04.613Z,99900.06
2023-01-13T12:09:11.897Z,99899.91
2023-01-13T12:12:18.070Z,99895.50
2023-01-13T12:14:56.432Z,99890.53
2023-01-13T12:17:34.813Z,99889.38
2023-01-13T12:20:18.621Z,99884.84
2023-01-13T12:22:47.677Z,99890.94
2023-01-13T12:25:13.991Z,99887.56
2023-01-13T12:27:49.298Z,99885.16
2023-01-13T12:30:26.053Z,99883.97
2023-01-13T12:33:04.042Z,99888.06
2023-01-13T12:35:49.857Z,99890.13
2023-01-13T12:38:45.598Z,99877.56
2023-01-13T12:41:38.803Z,99876.13
2023-01-13T12:44:16.931Z,99877.41
2023-01-13T12:46:55.780Z,99879.16
2023-01-13T12:49:31.369Z,99885.88
2023-01-13T12:51:57.831Z,99891.97
2023-01-13T12:54:30.362Z,99893.88
2023-01-13T12:56:58.069Z,99904.63
2023-01-13T12:59:24.432Z,99894.34
2023-01-13T13:02:12.619Z,99898.84
2023-01-13T13:04:43.566Z,99899.81
2023-01-13T13:07:17.290Z,99903.03
2023-01-13T13:09:49.063Z,99900.78
2023-01-13T13:12:49.072Z,99914.59
2023-01-13T13:15:24.244Z,99910.75
2023-01-13T13:17:59.840Z,99914.72
2023-01-13T13:20:55.661Z,99924.78
2023-01-13T13:23:37.348Z,99934.81
2023-01-13T13:26:20.260Z,99923.03
2023-01-13T13:29:01.848Z,99926.19
2023-01-13T13:31:55.490Z,99924.34
2023-01-13T13:34:34.577Z,99928.97
2023-01-13T13:37:07.133Z,99945.69
2023-01-13T13:39:52.853Z,99932.00
2023-01-13T13:42:45.062Z,99927.19
2023-01-13T13:45:39.190Z,99943.38
2023-01-13T13:48:39.101Z,99932.63
2023-01-13T13:51:25.794Z,99936.94
2023-01-13T13:53:52.798Z,99935.22
2023-01-13T13:56:24.193Z,99944.88
2023-01-13T13:58:52.295Z,99936.50
2023-01-13T14:01:45.935Z,99943.28
2023-01-13T14:04:18.437Z,99947.56
2023-01-13T14:07:01.941Z,99942.34
2023-01-13T14:09:40.585Z,99950.38
2023-01-13T14:12:16.987Z,99950.81
2023-01-13T14:14:44.864Z,99938.16
2023-01-13T14:17:22.127Z,99940.31
2023-01-13T14:20:14.472Z,99931.47
2023-01-13T14:22:47.041Z,99932.19
2023-01-13T14:25:35.935Z,99921.38
2023-01-13T14:28:20.620Z,99907.94
2023-01-13T14:30:47.692Z,99921.41
2023-01-13T14:33:21.205Z,99918.63
2023-01-13T14:36:26.905Z,99910.50
2023-01-13T14:39:05.673Z,99925.97
2023-01-13T14:41:45.394Z,99920.47
2023-01-13T14:44:27.059Z,99914.53
2023-01-13T14:46:56.541Z,99925.78
2023-01-13T14:49:39.446Z,99924.06
2023-01-13T14:52:21.576Z,99931.03
2023-01-13T14:54:49.828Z,99918.56
2023-01-13T14:57:33.017Z,99933.44
2023-01-13T15:00:18.790Z,99933.53
2023-01-13T15:02:57.355Z,99940.56
2023-01-13T15:05:30.574Z,99941.75
2023-01-13T15:08:13.879Z,99948.78
2023-01-13T15:10:54.669Z,99954.94
2023-01-13T15:13:29.710Z,99950.69
2023-01-13T15:16:00.100Z,99953.72
2023-01-13T15:18:27.102Z,99946.69
2023-01-13T15:20:57.595Z,99951.03
2023-01-13T15:23:24.075Z,99947.38
2023-01-13T15:25:50.800Z,99952.91
2023-01-13T15:28:23.671Z,99955.63
2023-01-13T15:30:51.694Z,99960.53
2023-01-13T15:33:19.430Z,99969.38
2023-01-13T15:35:48.832Z,99965.53
2023-01-13T15:38:18.937Z,99969.97
2023-01-13T15:40:46.234Z,99966.97
2023-01-13T15:43:36.806Z,99966.75
2023-01-13T15:46:38.408Z,99969.84
2023-01-13T15:49:16.611Z,99981.13
2023-01-13T15:51:44.211Z,99981.31
2023-01-13T15:54:11.940Z,99983.72
2023-01-13T15:56:39.304Z,99995.06
2023-01-13T15:59:21.906Z,99995.56
2023-01-13T16:01:48.314Z,99997.19
2023-01-13T16:04:14.785Z,100002.81
2023-01-13T16:06:41.879Z,100007.44
2023-01-13T16:09:13.191Z,99997.69
2023-01-13T16:11:39.591Z,100010.94
2023-01-13T16:14:06.016Z,100013.94
2023-01-13T16:16:32.457Z,100011.84
2023-01-13T16:18:58.867Z,100019.97
2023-01-13T16:21:25.307Z,100017.25
2023-01-13T16:23:52.178Z,100015.25
2023-01-13T16:26:22.490Z,100010.34
2023-01-13T16:28:50.574Z,99996.28
2023-01-13T16:31:21.729Z,100009.09
2023-01-13T16:33:48.492Z,100011.44
2023-01-13T16:36:16.759Z,100018.16
2023-01-13T16:38:43.371Z,100024.47
2023-01-13T16:41:10.162Z,100021.34
2023-01-13T16:43:36.834Z,100018.25
2023-01-13T16:46:16.246Z,100029.09
2023-01-13T16:48:42.732Z,100040.22
2023-01-13T16:51:09.145Z,100040.50
2023-01-13T16:53:35.557Z,100039.34
2023-01-13T16:56:02.011Z,100048.34
2023-01-13T16:58:28.669Z,100038.81
2023-01-13T17:00:55.539Z,100051.13
2023-01-13T17:03:22.000Z,100057.88
2023-01-13T17:05:48.412Z,100053.56
2023-01-13T17:08:17.897Z,100073.94
2023-01-13T17:10:45.858Z,100079.34
2023-01-13T17:13:16.355Z,100097.53
2023-01-13T17:15:44.256Z,100100.00
2023-01-13T17:18:13.051Z,100108.13
2023-01-13T17:20:39.517Z,100104.31
2023-01-13T17:23:06.005Z,100100.81
2023-01-13T17:25:32.416Z,100122.72
2023-01-13T17:27:58.971Z,100130.31
2023-01-13T17:30:25.403Z,100123.00
2023-01-13T17:32:51.815Z,100136.31
2023-01-13T17:35:22.835Z,100135.81
2023-01-13T17:37:49.271Z,100134.28
2023-01-13T17:40:15.992Z,100147.53
2023-01-13T17:42:42.441Z,100145.72
2023-01-13T17:45:11.400Z,100147.09
2023-01-13T17:47:38.519Z,100158.28
2023-01-13T17:50:05.641Z,100152.53
2023-01-13T17:52:33.587Z,100163.22
2023-01-13T17:54:59.966Z,100176.78
2023-01-13T17:57:26.401Z,100178.38
2023-01-13T17:59:52.795Z,100175.41
2023-01-13T18:02:19.275Z,100173.50
2023-01-13T18:04:45.814Z,100177.00
2023-01-13T18:07:12.284Z,100174.59
2023-01-13T18:09:38.671Z,100174.22
2023-01-13T18:12:05.787Z,100194.25
2023-01-13T18:14:37.111Z,100184.50
2023-01-13T18:17:03.807Z,100189.38
2023-01-13T18:19:48.855Z,100200.06
2023-01-13T18:22:34.087Z,100192.44
2023-01-13T18:25:19.591Z,100204.44
2023-01-13T18:27:46.898Z,100203.13
2023-01-13T18:30:14.835Z,100212.34
2023-01-13T18:32:41.591Z,100214.53
2023-01-13T18:35:10.342Z,100230.22
2023-01-13T18:37:40.256Z,100221.06
2023-01-13T18:40:10.022Z,100222.00
2023-01-13T18:42:53.573Z,100233.09
2023-01-13T18:45:25.873Z,100225.03
2023-01-13T18:47:54.329Z,100235.84
2023-01-13T18:50:21.187Z,100237.84
2023-01-13T18:52:47.935Z,100246.47
2023-01-13T18:55:14.719Z,100244.63
2023-01-13T18:57:41.200Z,100251.97
2023-01-13T19:00:10.684Z,100261.44
2023-01-13T19:02:37.223Z,100258.72
2023-01-13T19:05:04.576Z,100268.97
2023-01-13T19:07:32.029Z,100257.50
2023-01-13T19:09:59.630Z,100260.81
2023-01-13T19:12:27.517Z,100271.13
2023-01-13T19:14:55.422Z,100264.81
2023-01-13T19:17:23.181Z,100261.09
2023-01-13T19:19:52.631Z,100270.84
2023-01-13T19:22:37.127Z,100272.50
2023-01-13T19:25:04.560Z,100289.03
2023-01-13T19:27:31.551Z,100283.84
2023-01-13T19:30:00.226Z,100295.53
2023-01-13T19:32:27.487Z,100308.25
2023-01-13T19:34:55.039Z,100298.19
2023-01-13T19:37:21.570Z,100309.03
2023-01-13T19:39:48.085Z,100310.31
2023-01-13T19:42:33.108Z,100308.38
2023-01-13T19:45:17.873Z,100318.69
2023-01-13T19:47:45.637Z,100328.16
2023-01-13T19:50:13.694Z,100324.88
2023-01-13T19:52:41.323Z,100322.19
2023-01-13T19:55:08.041Z,100327.38
2023-01-13T19:57:34.488Z,100336.38
2023-01-13T20:00:00.941Z,100329.06
2023-01-13T20:02:28.165Z,100329.06
2023-01-13T20:04:56.215Z,100346.84
2023-01-13T20:07:25.454Z,100333.28
2023-01-13T20:09:52.809Z,100340.03
2023-01-13T20:12:22.370Z,100340.53
2023-01-13T20:14:49.834Z,100344.56
2023-01-13T20:17:19.396Z,100352.47
2023-01-13T20:19:48.647Z,100357.81
2023-01-13T20:22:15.140Z,100358.34
2023-01-13T20:24:41.641Z,100365.94
2023-01-13T20:27:08.304Z,100364.84
2023-01-13T20:29:35.295Z,100367.59
2023-01-13T20:32:01.880Z,100367.09
2023-01-13T20:34:28.393Z,100374.41
2023-01-13T20:36:54.869Z,100373.94
2023-01-13T20:39:26.059Z,100373.13
2023-01-13T20:42:11.142Z,100368.84
2023-01-13T20:44:37.677Z,100366.19
2023-01-13T20:47:04.203Z,100369.97
2023-01-13T20:49:30.920Z,100370.03
2023-01-13T20:51:57.612Z,100376.56
2023-01-13T20:54:24.371Z,100377.66
2023-01-13T20:56:50.859Z,100383.94
2023-01-13T20:59:17.425Z,100377.44
2023-01-13T21:01:44.506Z,100394.50
2023-01-13T21:04:11.027Z,100389.91
2023-01-13T21:06:37.558Z,100387.75
2023-01-13T21:09:04.075Z,100395.88
2023-01-13T21:11:49.160Z,100399.13
2023-01-13T21:14:36.998Z,100399.69
2023-01-13T21:17:05.050Z,100398.59
2023-01-13T21:19:31.641Z,100406.69
2023-01-13T21:21:58.040Z,100400.28
2023-01-13T21:24:27.141Z,100399.44
2023-01-13T21:26:57.116Z,100409.75
2023-01-13T21:29:23.841Z,100414.06
2023-01-13T21:31:50.418Z,100409.16
2023-01-13T21:34:16.832Z,100420.75
2023-01-13T21:36:43.254Z,100417.78
2023-01-13T21:39:10.357Z,100427.53
2023-01-13T21:41:55.391Z,100427.75
2023-01-13T21:44:40.235Z,100428.06
2023-01-13T21:47:34.259Z,100432.66
2023-01-13T21:50:01.625Z,100428.06
2023-01-13T21:52:28.184Z,100428.59
2023-01-13T21:55:13.109Z,100435.91
2023-01-13T21:57:39.608Z,100441.63
2023-01-13T22:00:06.646Z,100444.63
2023-01-13T22:02:33.255Z,100443.59
2023-01-13T22:05:00.366Z,100451.72
2023-01-13T22:07:28.040Z,100457.38
2023-01-13T22:09:55.220Z,100453.38
2023-01-13T22:12:25.001Z,100452.31
2023-01-13T22:14:52.029Z,100452.03
2023-01-13T22:17:20.778Z,100449.59
2023-01-13T22:19:52.763Z,100441.47
2023-01-13T22:22:20.329Z,100443.38
2023-01-13T22:24:48.768Z,100450.94
2023-01-13T22:27:26.009Z,100457.38
2023-01-13T22:29:52.960Z,100465.03
2023-01-13T22:32:20.892Z,100460.41
2023-01-13T22:34:48.013Z,100465.03
2023-01-13T22:37:14.647Z,100463.66
2023-01-13T22:39:41.194Z,100468.00
2023-01-13T22:42:07.601Z,100476.66
2023-01-13T22:44:34.148Z,100478.56
2023-01-13T22:47:00.862Z,100478.88
2023-01-13T22:49:27.341Z,100475.63
2023-01-13T22:51:53.801Z,100472.66
2023-01-13T22:54:20.312Z,100473.75
2023-01-13T22:56:46.838Z,100475.63
2023-01-13T22:59:14.490Z,100475.38
2023-01-13T23:01:42.121Z,100476.50
2023-01-13T23:04:12.811Z,100474.38
2023-01-13T23:06:40.215Z,100482.19
2023-01-13T23:09:07.436Z,100476.81
2023-01-13T23:11:34.376Z,100486.56
2023-01-13T23:14:03.453Z,100481.69
2023-01-13T23:16:32.559Z,100490.09
2023-01-13T23:18:59.046Z,100498.72
2023-01-13T23:21:28.258Z,100487.91
2023-01-13T23:23:54.916Z,100501.69
2023-01-13T23:26:22.168Z,100504.13
2023-01-13T23:28:49.307Z,100507.66
2023-01-13T23:31:21.548Z,100499.00
2023-01-13T23:33:48.934Z,100499.78
2023-01-13T23:36:18.037Z,100490.59
2023-01-13T23:38:45.278Z,100498.97
2023-01-13T23:41:18.292Z,100499.22
2023-01-13T23:43:53.291Z,100510.31
2023-01-13T23:46:20.273Z,100503.53
2023-01-13T23:48:47.843Z,100505.97
2023-01-13T23:51:14.535Z,100499.22
2023-01-13T23:53:47.064Z,100501.09
2023-01-13T23:56:17.715Z,100493.00
2023-01-13T23:58:45.368Z,100496.78
